Flight Track Log - Related Links

Times and Time Zones

All times are in EDT time to prevent confusion due to time zone crossing. See the TAM3239 flight status page for this flight to view local times or setup timezone preferences in your user account.

Time Position Orientation Groundspeed Altitude Reporting Facility
EDT Latitude Longitude Course Direction KTS MPH feet Rate Location/Type
Sat 07:32:00 AM -18.8750 -48.1800 177° South 211 243 5,700  Level FlightAware ADS-B
Sat 07:32:24 AM -18.9000 -48.1770 174° South 242 278 6,500 2,727 Climbing FlightAware ADS-B
Sat 07:32:44 AM -18.9140 -48.1610 133° Southeast 232 267 7,700 3,375 Climbing FlightAware ADS-B
Sat 07:33:12 AM -18.9280 -48.1320 117° Southeast 240 276 9,200 3,353 Climbing FlightAware ADS-B
Sat 07:33:52 AM -18.9510 -48.0930 122° Southeast 235 270 11,500 2,850 Climbing FlightAware ADS-B
Sat 07:34:32 AM -18.9740 -48.0610 127° Southeast 248 285 13,000 2,643 Climbing FlightAware ADS-B
Sat 07:35:16 AM -19.0110 -48.0120 129° Southeast 259 298 15,200 2,679 Climbing FlightAware ADS-B
Sat 07:35:28 AM -19.0230 -48.0050 151° Southeast 265 305 15,500 1,393 Climbing FlightAware ADS-B
Sat 07:36:12 AM -19.0800 -48.0070 182° South 307 353 16,500 1,214 Climbing FlightAware ADS-B
Sat 07:36:52 AM -19.1430 -48.0100 183° South 356 410 17,200 1,643 Climbing FlightAware ADS-B
Sat 07:37:36 AM -19.2180 -48.0130 182° South 372 428 18,800 2,523 Climbing FlightAware ADS-B
Sat 07:38:20 AM -19.2940 -48.0160 182° South 368 423 20,900 2,429 Climbing FlightAware ADS-B
Sat 07:39:00 AM -19.3640 -48.0200 183° South 380 437 22,200 1,902 Climbing FlightAware ADS-B
Sat 07:39:42 AM -19.4390 -48.0230 182° South 392 451 23,500 1,744 Climbing FlightAware ADS-B
Sat 07:40:26 AM -19.5210 -48.0280 183° South 407 468 24,700 1,714 Climbing FlightAware ADS-B
Sat 07:41:06 AM -19.5960 -48.0310 182° South 414 476 25,900 1,902 Climbing FlightAware ADS-B
Sat 07:41:48 AM -19.6790 -48.0350 183° South 418 481 27,300 1,929 Climbing FlightAware ADS-B
Sat 07:42:30 AM -19.7610 -48.0390 183° South 422 486 28,600 1,605 Climbing FlightAware ADS-B
Sat 07:43:14 AM -19.8470 -48.0430 183° South 432 497 29,600 1,500 Climbing FlightAware ADS-B
Sat 07:43:54 AM -19.9270 -48.0470 183° South 434 499 30,700 1,429 Climbing FlightAware ADS-B
Sat 07:44:38 AM -20.0160 -48.0510 182° South 442 509 31,600 1,395 Climbing FlightAware ADS-B
Sat 07:45:20 AM -20.1040 -48.0560 183° South 444 511 32,700 1,571 Climbing FlightAware ADS-B
Sat 07:46:02 AM -20.1890 -48.0600 183° South 444 511 33,800 1,373 Climbing FlightAware ADS-B
Sat 07:46:43 AM -20.2720 -48.0640 183° South 447 514 34,600 1,275 Climbing FlightAware ADS-B
Sat 07:47:22 AM -20.3340 -48.0670 183° South 442 509 35,500 1,482 Climbing FlightAware ADS-B
Sat 07:48:08 AM -20.4500 -48.0720 182° South 442 509 36,700 1,310 Climbing FlightAware ADS-B
Sat 07:48:49 AM -20.5320 -48.0760 183° South 443 510 37,400 889 Climbing FlightAware ADS-B
Sat 07:49:29 AM -20.6000 -48.0800 183° South 444 511 37,900 456 Climbing FlightAware ADS-B
Sat 07:50:08 AM -20.6940 -48.0840 182° South 439 505 38,000 71 Climbing FlightAware ADS-B
Sat 07:50:54 AM -20.7890 -48.0890 183° South 441 507 38,000  Level FlightAware ADS-B
Sat 07:51:38 AM -20.8790 -48.0930 182° South 440 506 38,000  Level FlightAware ADS-B
Sat 07:52:20 AM -20.9630 -48.0970 183° South 438 504 38,000  Level FlightAware ADS-B
Sat 07:53:00 AM -21.0460 -48.1010 183° South 437 503 38,000  Level FlightAware ADS-B
Sat 07:53:43 AM -21.1320 -48.1060 183° South 437 503 38,000  Level FlightAware ADS-B
Sat 07:54:24 AM -21.2160 -48.1100 183° South 438 504 38,000  Level FlightAware ADS-B
Sat 07:55:06 AM -21.3010 -48.1140 183° South 438 504 38,000  Level FlightAware ADS-B
Sat 07:55:48 AM -21.3840 -48.1180 183° South 438 504 38,000  Level FlightAware ADS-B
Sat 07:56:32 AM -21.4750 -48.1220 182° South 437 503 38,000  Level FlightAware ADS-B
Sat 07:57:14 AM -21.5600 -48.1270 183° South 437 503 38,000  Level FlightAware ADS-B
Sat 07:57:54 AM -21.6410 -48.1310 183° South 436 502 38,000  Level FlightAware ADS-B
Sat 07:58:38 AM -21.7300 -48.1350 182° South 436 502 38,000 -300 Level FlightAware ADS-B
Sat 07:59:34 AM -21.8430 -48.1240 175° South 469 540 37,500 -1,125 Descending FlightAware ADS-B
Sat 08:00:14 AM -21.9200 -48.0820 153° Southeast 471 542 36,200 -2,025 Descending FlightAware ADS-B
Sat 08:00:54 AM -21.9990 -48.0400 154° Southeast 466 536 34,800 -2,118 Descending FlightAware ADS-B
Sat 08:01:39 AM -22.0880 -47.9940 154° Southeast 467 537 33,200 -2,025 Descending FlightAware ADS-B
Sat 08:02:14 AM -22.1550 -47.9570 153° Southeast 453 521 32,100 -1,906 Descending FlightAware ADS-B
Sat 08:03:04 AM -22.2500 -47.9070 154° Southeast 446 513 30,500 -1,933 Descending FlightAware ADS-B
Sat 08:03:44 AM -22.3230 -47.8680 154° Southeast 435 501 29,200 -1,875 Descending FlightAware ADS-B
Sat 08:04:24 AM -22.3950 -47.8290 153° Southeast 416 479 28,000 -1,814 Descending FlightAware ADS-B
Sat 08:05:10 AM -22.4730 -47.7880 154° Southeast 414 476 26,600 -1,416 Descending FlightAware ADS-B
Sat 08:05:53 AM -22.5090 -47.7680 153° Southeast 409 471 25,900 -1,880 Descending FlightAware ADS-B
Sat 08:06:33 AM -22.6110 -47.7140 154° Southeast 397 457 24,000 -2,370 Descending FlightAware ADS-B
Sat 08:07:14 AM -22.6800 -47.6750 152° Southeast 392 451 22,700 -1,714 Descending FlightAware ADS-B
Sat 08:07:57 AM -22.7300 -47.6290 140° Southeast 387 445 21,600 -1,650 Descending FlightAware ADS-B
Sat 08:08:34 AM -22.7770 -47.5850 139° Southeast 381 438 20,500 -1,851 Descending FlightAware ADS-B
Sat 08:09:31 AM -22.8540 -47.5130 139° Southeast 380 437 18,700 -1,905 Descending FlightAware ADS-B
Sat 08:10:40 AM -22.9520 -47.4220 139° Southeast 368 423 16,500 -1,875 Descending FlightAware ADS-B
Sat 08:11:39 AM -23.0270 -47.3530 140° Southeast 357 411 14,700 -1,864 Descending FlightAware ADS-B
Sat 08:12:23 AM -23.0850 -47.2980 139° Southeast 347 399 13,300 -1,571 Descending FlightAware ADS-B
Sat 08:13:03 AM -23.1330 -47.2540 140° Southeast 331 381 12,500 -1,037 Descending FlightAware ADS-B
Sat 08:13:44 AM -23.1750 -47.2150 140° Southeast 314 361 11,900 -632 Descending FlightAware ADS-B
Sat 08:14:38 AM -23.2090 -47.1830 139° Southeast 289 333 11,500 -583 Descending FlightAware ADS-B
Sat 08:15:27 AM -23.2770 -47.1190 139° Southeast 271 312 10,900 -1,184 Descending FlightAware ADS-B
Sat 08:15:54 AM -23.3050 -47.0940 141° Southeast 260 299 10,000 -1,592 Descending FlightAware ADS-B
Sat 08:16:16 AM -23.3260 -47.0750 140° Southeast 258 297 9,600 -1,000 Descending FlightAware ADS-B
Sat 08:16:48 AM -23.3550 -47.0490 141° Southeast 249 287 9,100 -600 Descending FlightAware ADS-B
Sat 08:17:16 AM -23.3790 -47.0270 140° Southeast 234 269 9,000 -105 Descending FlightAware ADS-B
Sat 08:17:45 AM -23.4020 -47.0050 139° Southeast 230 265 9,000 -536 Level FlightAware ADS-B
Sat 08:18:12 AM -23.4230 -46.9840 137° Southeast 230 265 8,500 -1,132 Descending FlightAware ADS-B
Sat 08:18:38 AM -23.4450 -46.9640 140° Southeast 233 268 8,000 -1,091 Descending FlightAware ADS-B
Sat 08:18:56 AM -23.4570 -46.9470 128° Southeast 232 267 7,700 -1,000 Descending FlightAware ADS-B
Sat 08:19:08 AM -23.4590 -46.9340 100° East 227 261 7,500 -1,050 Descending FlightAware ADS-B
Sat 08:19:36 AM -23.4600 -46.9020 92° East 229 264 7,000 -889 Descending FlightAware ADS-B
Sat 08:20:02 AM -23.4610 -46.8720 92° East 223 257 6,700 -500 Descending FlightAware ADS-B
Sat 08:20:48 AM -23.4630 -46.8230 93° East 201 231 6,400 -400 Descending FlightAware ADS-B
Sat 08:21:17 AM -23.4640 -46.7960 92° East 188 216 6,200 -536 Descending FlightAware ADS-B
Sat 08:21:44 AM -23.4670 -46.7710 97° East 180 207 5,900 -649 Descending FlightAware ADS-B
Sat 08:21:54 AM -23.4720 -46.7640 128° Southeast 179 206 5,800 -643 Descending FlightAware ADS-B
Sat 08:22:12 AM -23.4840 -46.7550 145° Southeast 177 204 5,600 -913 Descending FlightAware ADS-B
Sat 08:22:40 AM -23.5040 -46.7410 147° Southeast 179 206 5,100 -1,222 Descending FlightAware ADS-B
Sat 08:23:06 AM -23.5230 -46.7280 148° Southeast 178 205 4,500 -1,071 Descending FlightAware ADS-B
Sat 08:23:36 AM -23.5420 -46.7150 148° Southeast 153 176 4,100 -857 Descending FlightAware ADS-B
Sat 08:23:48 AM -23.5480 -46.7110 149° Southeast 141 162 3,900 -615 Descending FlightAware ADS-B
Sat 08:24:15 AM -23.5610 -46.7020 148° Southeast 126 145 3,700 -585 Descending FlightAware ADS-B
Sat 08:24:29 AM -23.5680 -46.6970 147° Southeast 124 143 3,500 -732 Descending FlightAware ADS-B
Sat 08:24:56 AM -23.5830 -46.6870 149° Southeast 127 146 3,200 -667 Descending FlightAware ADS-B
Sat 08:25:14 AM -23.5910 -46.6810 145° Southeast 129 148 3,000 -632 Descending FlightAware ADS-B
Sat 08:25:53 AM -23.6100 -46.6680 148° Southeast 128 147 2,600 -492 Descending FlightAware ADS-B
Sat 08:26:15 AM -23.6170 -46.6630 147° Southeast 127 146 2,500 -474 Descending FlightAware ADS-B
Sat 08:26:31 AM -23.6250 -46.6570 146° Southeast 125 144 2,300 -231 Descending FlightAware ADS-B
Sat 08:27:07 AM -23.6180 -46.6460 55° Northeast 117 135 2,300  Level FlightAware ADS-B
Sat 08:28:01 AM -23.6290 -46.6560 220° Southwest 117 135 -2,556 Descending FlightAware ADS-B
Sat 08:28:26 AM -23.6260 -46.6580 329° Northwest 117 135  Level FlightAware ADS-B
Sat 08:28:50 AM -23.6250 -46.6590 318° Northwest 117 135  Level FlightAware ADS-B
Sat 08:29:22 AM -23.6260 -46.6600 222° Southwest 117 135  Level FlightAware ADS-B
Sat 08:30:23 AM -23.6240 -46.6460 81° East 117 135  Level FlightAware ADS-B
Sat 08:31:17 AM -23.6250 -46.6600 266° West 117 135  Level FlightAware ADS-B
Sat 08:32:12 AM -23.6240 -46.6460 86° East 117 135  Level FlightAware ADS-B
Sat 08:32:34 AM -23.6250 -46.6600 266° West 117 135  Level FlightAware ADS-B
Sat 08:33:36 AM -23.6240 -46.6470 85° East 117 135  Level FlightAware ADS-B
Sat 08:34:12 AM -23.6240 -46.6460 90° East 117 135  Level FlightAware ADS-B
Sat 08:34:25 AM -23.6250 -46.6600 266° West 117 135  Level FlightAware ADS-B
Sat 08:37:00 AM -23.6267 -46.6554 112° Southeast  Level Estimated
Sat 08:37:16 AM -23.6240 -46.6460 112° Southeast 117 135  Level FlightAware ADS-B

Login

Don't have an account? Register now (free) for customized features, flight alerts, and more!